Time;durP1;ratioP1;P1;durP2;ratioP2;P2;SDS_P1;SDS_P2;PMS_P1;PMS_P2;Temp;Humidity;BMP_temperature;BMP_pressure;BME280_temperature;BME280_humidity;BME280_pressure;Samples;Min_cycle;Max_cycle;Signal;HPM_P1;HPM_P2
2023/10/25 04:01:16;;;;;;;3.60;1.57;;;11.10;89.30;;;;;;5706437;23;20497;-74
2023/10/25 04:03:43;;;;;;;1.50;1.20;;;11.00;89.10;;;;;;4996264;28;20938;-72
2023/10/25 04:06:10;;;;;;;1.90;1.43;;;11.00;89.60;;;;;;4996243;28;20445;-74
2023/10/25 04:08:37;;;;;;;2.67;1.10;;;11.10;89.20;;;;;;4995737;28;20501;-74
2023/10/25 04:11:03;;;;;;;1.47;1.10;;;11.20;88.80;;;;;;4995667;28;20843;-74
2023/10/25 04:13:30;;;;;;;1.40;1.10;;;11.10;88.50;;;;;;4996328;28;20484;-74
2023/10/25 04:15:59;;;;;;;1.50;1.00;;;11.20;88.50;;;;;;4996450;28;20448;-74
2023/10/25 04:18:29;;;;;;;2.27;1.20;;;11.20;88.10;;;;;;4996184;28;20441;-74
2023/10/25 04:20:56;;;;;;;1.60;1.20;;;11.30;88.40;;;;;;4995749;28;21016;-74
2023/10/25 04:23:24;;;;;;;2.23;1.20;;;11.30;88.20;;;;;;4995213;28;20451;-75
2023/10/25 04:25:51;;;;;;;1.60;1.30;;;11.40;87.70;;;;;;4995574;28;20449;-74
2023/10/25 04:28:18;;;;;;;1.50;1.10;;;11.20;88.10;;;;;;4995515;28;20456;-74
2023/10/25 04:30:45;;;;;;;1.70;1.30;;;11.10;88.60;;;;;;4995810;28;20466;-74
2023/10/25 04:33:12;;;;;;;1.93;1.00;;;11.00;88.90;;;;;;4995421;28;20449;-74
2023/10/25 04:35:41;;;;;;;1.43;1.07;;;11.00;89.00;;;;;;4995442;28;20445;-74
2023/10/25 04:38:08;;;;;;;1.93;1.10;;;11.00;88.90;;;;;;4995363;28;20499;-75
2023/10/25 04:40:34;;;;;;;1.37;1.00;;;10.90;88.90;;;;;;4995431;28;20488;-74
2023/10/25 04:43:01;;;;;;;1.37;1.07;;;10.90;89.30;;;;;;4995415;28;20445;-74
2023/10/25 04:45:28;;;;;;;1.50;1.20;;;11.00;89.10;;;;;;4995353;28;20472;-74
2023/10/25 04:47:55;;;;;;;1.50;1.00;;;11.00;88.80;;;;;;4994732;28;20541;-74
2023/10/25 04:50:22;;;;;;;1.63;0.90;;;11.00;88.60;;;;;;4994653;28;20938;-74
2023/10/25 04:52:50;;;;;;;1.40;1.00;;;11.10;88.60;;;;;;4994816;28;20961;-74
2023/10/25 04:55:17;;;;;;;2.47;1.40;;;11.20;88.40;;;;;;4995074;28;20449;-75
2023/10/25 04:57:44;;;;;;;1.90;1.10;;;11.20;87.90;;;;;;4995187;28;20449;-74
2023/10/25 05:00:12;;;;;;;1.90;1.40;;;11.20;87.80;;;;;;4994955;28;20868;-74
2023/10/25 05:02:39;;;;;;;1.70;1.10;;;11.20;87.50;;;;;;4995029;28;20484;-75
2023/10/25 05:05:07;;;;;;;1.30;0.97;;;11.20;87.30;;;;;;4994834;28;20858;-75
2023/10/25 05:07:34;;;;;;;1.60;1.40;;;11.20;87.20;;;;;;4994846;28;20459;-74
2023/10/25 05:10:04;;;;;;;1.80;1.17;;;11.10;87.00;;;;;;4994485;28;20445;-74
2023/10/25 05:12:37;;;;;;;2.00;1.43;;;11.10;86.80;;;;;;4994455;28;20465;-74
2023/10/25 05:15:05;;;;;;;1.40;1.13;;;11.00;87.10;;;;;;4994613;28;20453;-75
2023/10/25 05:17:32;;;;;;;1.67;1.00;;;11.00;87.60;;;;;;4995350;28;20449;-74
2023/10/25 05:19:59;;;;;;;1.40;1.00;;;11.00;87.60;;;;;;4994339;28;20456;-74
2023/10/25 05:22:28;;;;;;;2.33;1.10;;;11.00;87.50;;;;;;4994271;28;20497;-75
2023/10/25 05:24:56;;;;;;;3.20;1.30;;;11.00;87.10;;;;;;4994697;28;20452;-75
2023/10/25 05:27:24;;;;;;;1.30;0.80;;;11.00;87.50;;;;;;4994561;28;20449;-75
2023/10/25 05:29:52;;;;;;;1.40;1.00;;;11.00;87.30;;;;;;4994566;28;20514;-74
2023/10/25 05:32:20;;;;;;;1.40;0.90;;;11.00;87.20;;;;;;4994805;28;20849;-73
2023/10/25 05:34:48;;;;;;;3.40;1.00;;;11.00;87.10;;;;;;4994764;28;20528;-74
2023/10/25 05:37:15;;;;;;;1.40;0.90;;;11.00;87.10;;;;;;4998330;28;20477;-74
2023/10/25 05:39:42;;;;;;;1.60;1.50;;;11.00;87.00;;;;;;4998303;28;20449;-74
2023/10/25 05:42:13;;;;;;;1.80;1.10;;;11.00;86.90;;;;;;4998269;28;20495;-74
2023/10/25 05:44:42;;;;;;;1.80;1.10;;;11.10;86.90;;;;;;4997911;28;20440;-70
2023/10/25 05:47:09;;;;;;;1.60;1.10;;;11.10;86.60;;;;;;4998471;28;20461;-74
2023/10/25 05:49:36;;;;;;;1.43;0.97;;;11.10;86.50;;;;;;4998101;28;20445;-73
2023/10/25 05:52:04;;;;;;;1.50;1.20;;;11.20;86.50;;;;;;4997885;28;20468;-73
2023/10/25 05:54:31;;;;;;;1.50;1.20;;;11.20;86.40;;;;;;4997880;28;20864;-74
2023/10/25 05:56:59;;;;;;;1.60;1.20;;;11.20;86.60;;;;;;4998220;28;20476;-74
2023/10/25 05:59:26;;;;;;;2.63;1.37;;;11.20;86.80;;;;;;4999265;28;20505;-74
2023/10/25 06:02:03;;;;;;;1.60;1.20;;;11.20;86.60;;;;;;4997352;28;21004;-74
2023/10/25 06:04:31;;;;;;;2.33;1.20;;;11.20;86.50;;;;;;4998060;28;20429;-74
2023/10/25 06:06:58;;;;;;;2.10;1.27;;;11.30;86.50;;;;;;4998031;28;20980;-75
2023/10/25 06:09:26;;;;;;;1.63;1.30;;;11.30;86.20;;;;;;4997614;28;20449;-74
2023/10/25 06:11:53;;;;;;;2.33;1.70;;;11.20;86.60;;;;;;4998156;28;20496;-74
2023/10/25 06:14:20;;;;;;;1.70;1.40;;;11.10;86.90;;;;;;4997920;28;20519;-74
2023/10/25 06:16:47;;;;;;;1.87;1.57;;;11.10;87.80;;;;;;4997816;28;20441;-75
2023/10/25 06:19:15;;;;;;;1.83;1.50;;;11.00;87.20;;;;;;4997801;28;20453;-74
2023/10/25 06:21:42;;;;;;;1.50;1.30;;;11.00;87.90;;;;;;4997201;28;20496;-74
2023/10/25 06:24:09;;;;;;;1.40;1.20;;;11.10;87.70;;;;;;4997768;28;20441;-75
2023/10/25 06:26:35;;;;;;;1.80;1.30;;;10.80;87.80;;;;;;4997446;28;20452;-74
2023/10/25 06:29:02;;;;;;;1.50;1.10;;;10.70;88.40;;;;;;4996844;28;20460;-75
2023/10/25 06:31:29;;;;;;;1.70;1.60;;;10.80;88.00;;;;;;4996745;28;21009;-74
2023/10/25 06:33:56;;;;;;;1.60;1.27;;;10.70;87.90;;;;;;5002889;28;20445;-72
2023/10/25 06:36:24;;;;;;;1.63;1.27;;;10.80;88.10;;;;;;5021845;28;20437;-74
2023/10/25 06:38:51;;;;;;;1.50;1.30;;;10.90;87.70;;;;;;5007446;28;20480;-75
2023/10/25 06:41:20;;;;;;;2.50;2.30;;;10.90;87.20;;;;;;4997192;28;20489;-75
2023/10/25 06:43:47;;;;;;;2.53;1.57;;;11.30;87.60;;;;;;4997264;28;20484;-76
2023/10/25 06:46:14;;;;;;;1.60;1.27;;;12.50;86.90;;;;;;4996821;28;20453;-76
2023/10/25 06:48:42;;;;;;;2.00;1.23;;;14.10;82.80;;;;;;4996743;28;20456;-76
2023/10/25 06:51:10;;;;;;;1.37;0.93;;;15.80;75.20;;;;;;4996970;28;20487;-76
2023/10/25 06:53:39;;;;;;;1.40;1.07;;;16.50;70.90;;;;;;4997083;28;20814;-76
2023/10/25 06:56:07;;;;;;;1.50;1.13;;;17.10;69.80;;;;;;4998375;28;20468;-75
2023/10/25 06:58:34;;;;;;;1.77;1.10;;;18.20;68.20;;;;;;4998048;28;20444;-76
2023/10/25 07:01:03;;;;;;;1.40;1.00;;;19.40;65.40;;;;;;4998092;28;20496;-76
2023/10/25 07:03:33;;;;;;;1.30;1.00;;;20.50;61.70;;;;;;5001734;28;20426;-76
2023/10/25 07:06:01;;;;;;;1.37;1.10;;;21.70;61.00;;;;;;5002158;28;20915;-77
2023/10/25 07:08:28;;;;;;;1.30;1.00;;;23.10;57.80;;;;;;5001190;28;20442;-74
2023/10/25 07:10:56;;;;;;;1.87;1.47;;;24.50;54.10;;;;;;5001159;28;20464;-77
2023/10/25 07:13:24;;;;;;;1.50;1.10;;;25.00;52.30;;;;;;4999321;28;20453;-75
2023/10/25 07:15:50;;;;;;;1.90;1.40;;;25.90;50.60;;;;;;4999925;28;20464;-78
2023/10/25 07:18:17;;;;;;;1.40;1.07;;;26.80;48.80;;;;;;4999269;28;20453;-78
2023/10/25 07:20:44;;;;;;;1.50;1.30;;;27.70;47.60;;;;;;4997317;28;20523;-78
2023/10/25 07:23:11;;;;;;;1.30;1.07;;;28.60;47.10;;;;;;4999458;28;20448;-75
2023/10/25 07:25:38;;;;;;;1.53;1.20;;;28.70;45.30;;;;;;4999085;28;20438;-78
2023/10/25 07:28:06;;;;;;;1.47;1.10;;;28.00;46.80;;;;;;4997132;28;20483;-79
2023/10/25 07:30:34;;;;;;;1.50;1.00;;;28.30;46.20;;;;;;4997108;28;20449;-79
2023/10/25 07:33:01;;;;;;;1.50;1.10;;;28.80;45.50;;;;;;4998474;28;20448;-79
2023/10/25 07:35:28;;;;;;;1.47;1.00;;;29.10;45.40;;;;;;4997030;28;20872;-76
2023/10/25 07:37:55;;;;;;;1.30;1.10;;;28.70;45.70;;;;;;4997346;28;20449;-77
2023/10/25 07:40:21;;;;;;;1.33;1.10;;;29.30;45.70;;;;;;5000742;28;20450;-77
2023/10/25 07:42:48;;;;;;;3.20;0.90;;;29.70;44.40;;;;;;5000394;28;20493;-75
2023/10/25 07:45:16;;;;;;;1.30;1.00;;;28.00;46.30;;;;;;4999739;28;20942;-76
2023/10/25 07:47:43;;;;;;;1.67;1.57;;;26.70;48.10;;;;;;5000251;28;20452;-76
2023/10/25 07:50:10;;;;;;;1.40;1.10;;;26.50;48.70;;;;;;4999197;28;20453;-76
2023/10/25 07:52:37;;;;;;;1.30;1.00;;;25.90;50.60;;;;;;4999133;28;20461;-75
2023/10/25 07:55:05;;;;;;;1.70;1.33;;;24.80;51.20;;;;;;4998479;28;20456;-76
2023/10/25 07:57:33;;;;;;;2.00;1.43;;;23.70;54.00;;;;;;4997745;28;20450;-76
2023/10/25 08:00:00;;;;;;;1.60;1.30;;;21.90;56.90;;;;;;4997078;28;20467;-77
2023/10/25 08:02:28;;;;;;;3.00;1.30;;;20.20;61.70;;;;;;4996453;28;21009;-76
2023/10/25 08:04:55;;;;;;;1.60;1.23;;;18.70;64.90;;;;;;4996847;28;20445;-77
2023/10/25 08:07:23;;;;;;;1.90;1.53;;;17.90;67.60;;;;;;4995832;28;20942;-77
2023/10/25 08:09:50;;;;;;;1.70;1.50;;;17.20;70.20;;;;;;4998109;28;20492;-77
2023/10/25 08:12:17;;;;;;;1.50;1.20;;;16.60;72.20;;;;;;4997239;28;20492;-75
2023/10/25 08:14:43;;;;;;;1.40;1.10;;;16.30;73.40;;;;;;4995784;28;20452;-77
2023/10/25 08:17:10;;;;;;;1.67;1.47;;;16.10;73.80;;;;;;4996888;28;20457;-76
2023/10/25 08:19:38;;;;;;;1.87;1.30;;;15.80;74.60;;;;;;4997651;28;20445;-76
2023/10/25 08:22:06;;;;;;;1.83;1.63;;;15.60;75.80;;;;;;4997216;28;20492;-76
2023/10/25 08:24:33;;;;;;;1.47;1.27;;;15.30;76.80;;;;;;4996508;28;20456;-76
2023/10/25 08:26:59;;;;;;;1.50;1.33;;;14.90;77.60;;;;;;4996115;28;20449;-77
2023/10/25 08:29:26;;;;;;;1.70;1.40;;;14.80;78.90;;;;;;4999076;28;20456;-74
2023/10/25 08:31:53;;;;;;;1.50;1.30;;;14.70;79.70;;;;;;4999451;28;20465;-73
2023/10/25 08:34:20;;;;;;;1.73;1.50;;;14.30;80.60;;;;;;4998542;28;20480;-74
2023/10/25 08:36:49;;;;;;;1.57;1.37;;;14.10;81.40;;;;;;4997628;28;20457;-74
2023/10/25 08:39:16;;;;;;;1.90;1.50;;;13.90;82.40;;;;;;4998762;28;20453;-75
2023/10/25 08:41:47;;;;;;;1.70;1.60;;;13.90;83.20;;;;;;4998773;28;20489;-75
2023/10/25 08:44:14;;;;;;;1.53;1.27;;;13.90;83.40;;;;;;4997535;28;20480;-74
2023/10/25 08:46:41;;;;;;;1.70;1.40;;;13.60;83.80;;;;;;4997222;28;20441;-74
2023/10/25 08:49:08;;;;;;;4.13;1.70;;;13.50;84.40;;;;;;4997851;28;20452;-76
2023/10/25 08:51:35;;;;;;;1.87;1.33;;;13.40;85.40;;;;;;4995905;28;20478;-75
2023/10/25 08:54:04;;;;;;;1.97;1.50;;;13.50;85.20;;;;;;4996349;28;20452;-75
2023/10/25 08:56:31;;;;;;;2.17;1.70;;;13.60;85.60;;;;;;4995976;28;20445;-76
2023/10/25 08:58:59;;;;;;;1.70;1.47;;;13.20;85.60;;;;;;4996647;28;20448;-76
2023/10/25 09:01:27;;;;;;;1.80;1.60;;;13.20;86.50;;;;;;4997386;28;20476;-75
2023/10/25 09:03:54;;;;;;;1.87;1.70;;;13.20;86.00;;;;;;4997818;28;20500;-74
2023/10/25 09:06:26;;;;;;;1.70;1.40;;;13.40;86.30;;;;;;4997353;28;20444;-74
2023/10/25 09:09:02;;;;;;;1.97;1.67;;;13.60;85.70;;;;;;4996436;28;20536;-74
2023/10/25 09:11:43;;;;;;;1.67;1.30;;;13.50;85.70;;;;;;4997826;28;20512;-74
2023/10/25 09:14:11;;;;;;;1.70;1.47;;;13.20;86.40;;;;;;4996682;28;20425;-74
2023/10/25 09:16:41;;;;;;;1.53;1.30;;;13.00;87.30;;;;;;4995772;28;20449;-74
2023/10/25 09:19:08;;;;;;;1.83;1.57;;;12.90;87.90;;;;;;4996284;28;20505;-73
2023/10/25 09:21:34;;;;;;;1.93;1.60;;;13.00;88.20;;;;;;4996418;28;20459;-74
2023/10/25 09:24:07;;;;;;;2.70;1.60;;;13.10;88.10;;;;;;4995905;28;20441;-74
2023/10/25 09:26:35;;;;;;;1.87;1.60;;;13.30;87.80;;;;;;4995739;28;20480;-73
2023/10/25 09:29:03;;;;;;;1.80;1.47;;;13.30;87.20;;;;;;4996071;28;20476;-74
2023/10/25 09:31:32;;;;;;;2.00;1.80;;;13.30;87.50;;;;;;4996295;28;20469;-74
2023/10/25 09:34:00;;;;;;;1.93;1.30;;;13.00;88.10;;;;;;4995979;28;20458;-73
2023/10/25 09:36:27;;;;;;;2.43;1.77;;;13.00;88.90;;;;;;4995414;28;20449;-75
2023/10/25 09:38:55;;;;;;;1.90;1.60;;;13.20;88.80;;;;;;4994855;28;20472;-77
2023/10/25 09:41:21;;;;;;;1.80;1.50;;;13.40;88.60;;;;;;4993845;28;20465;-75
2023/10/25 09:43:49;;;;;;;4.20;1.70;;;13.50;88.20;;;;;;4994298;28;20487;-76
2023/10/25 09:46:19;;;;;;;1.70;1.60;;;13.60;87.90;;;;;;4993931;28;20444;-76
2023/10/25 09:48:55;;;;;;;2.47;1.60;;;13.70;87.20;;;;;;4993962;28;20445;-75
2023/10/25 09:51:38;;;;;;;1.60;1.33;;;13.80;86.80;;;;;;4993628;28;21009;-75
2023/10/25 09:54:11;;;;;;;4.43;1.70;;;14.00;86.80;;;;;;4994073;28;20434;-76
2023/10/25 09:56:38;;;;;;;1.70;1.50;;;14.10;86.30;;;;;;4993899;28;20429;-76
2023/10/25 09:59:07;;;;;;;2.00;1.77;;;14.20;87.00;;;;;;4994160;28;20504;-75
2023/10/25 10:01:36;;;;;;;1.50;1.00;;;14.10;86.20;;;;;;4993808;28;20497;-76
2023/10/25 10:04:10;;;;;;;2.90;1.50;;;14.20;87.00;;;;;;4993958;28;20567;-76
2023/10/25 10:06:40;;;;;;;1.70;1.30;;;14.10;87.10;;;;;;4994086;28;20432;-76
2023/10/25 10:09:15;;;;;;;1.57;1.00;;;14.00;86.90;;;;;;4993976;28;20823;-74
2023/10/25 10:11:50;;;;;;;1.80;1.10;;;14.10;87.10;;;;;;4993942;28;20468;-75
2023/10/25 10:14:28;;;;;;;2.03;1.27;;;14.20;87.60;;;;;;4994907;28;20445;-75
2023/10/25 10:16:59;;;;;;;1.53;1.20;;;14.30;86.30;;;;;;4993993;28;20477;-75
2023/10/25 10:19:26;;;;;;;1.43;1.00;;;14.20;87.10;;;;;;4994271;28;20457;-76
2023/10/25 10:22:11;;;;;;;1.83;1.20;;;14.10;87.70;;;;;;4995534;28;20458;-76
2023/10/25 10:24:43;;;;;;;1.30;0.90;;;14.20;87.40;;;;;;4997911;28;20437;-75
2023/10/25 10:27:10;;;;;;;1.53;0.97;;;14.20;86.20;;;;;;4997165;28;20432;-76
2023/10/25 10:29:41;;;;;;;1.70;1.00;;;14.30;87.10;;;;;;4996997;28;20832;-76
2023/10/25 10:32:11;;;;;;;1.47;1.10;;;14.40;86.20;;;;;;4997155;28;20461;-76
2023/10/25 10:34:45;;;;;;;1.37;1.07;;;14.40;86.40;;;;;;4997356;28;20441;-76
2023/10/25 10:37:13;;;;;;;1.67;1.10;;;14.60;85.80;;;;;;4997138;28;20495;-76
2023/10/25 10:40:13;;;;;;;1.50;1.00;;;14.70;86.10;;;;;;4996752;28;20939;-76
2023/10/25 10:42:40;;;;;;;1.50;1.10;;;14.80;85.70;;;;;;4997687;28;20481;-76
2023/10/25 10:45:10;;;;;;;1.50;1.07;;;14.80;85.20;;;;;;4996754;28;20456;-75
2023/10/25 10:47:41;;;;;;;2.17;1.10;;;14.80;85.70;;;;;;4997821;28;20437;-74
2023/10/25 10:50:11;;;;;;;1.50;1.00;;;14.70;85.70;;;;;;4997297;28;20464;-74
2023/10/25 10:52:38;;;;;;;1.30;0.90;;;14.70;85.70;;;;;;4997298;28;20468;-74
2023/10/25 10:55:06;;;;;;;1.30;0.90;;;14.60;85.30;;;;;;4997177;28;20519;-76
2023/10/25 10:57:32;;;;;;;1.47;1.00;;;14.40;85.70;;;;;;4996894;28;20454;-76
2023/10/25 11:00:00;;;;;;;1.40;0.90;;;14.40;85.70;;;;;;4996502;28;20453;-75
2023/10/25 11:02:27;;;;;;;1.50;1.13;;;14.50;86.20;;;;;;4996497;28;20492;-76
2023/10/25 11:04:55;;;;;;;1.47;1.00;;;14.50;85.80;;;;;;4996504;28;20445;-75
2023/10/25 11:07:21;;;;;;;1.33;0.90;;;14.50;86.10;;;;;;4996544;28;20445;-76
2023/10/25 11:09:48;;;;;;;1.70;1.00;;;14.40;86.80;;;;;;4996502;28;20801;-75
2023/10/25 11:12:15;;;;;;;2.00;1.63;;;14.50;86.70;;;;;;4996314;28;20472;-76
2023/10/25 11:14:43;;;;;;;2.43;1.30;;;14.70;86.30;;;;;;4996222;28;20496;-77
2023/10/25 11:17:10;;;;;;;1.70;1.60;;;14.80;86.20;;;;;;4996098;28;20448;-76
2023/10/25 11:19:37;;;;;;;1.40;1.00;;;14.80;85.70;;;;;;4995982;28;20456;-76
2023/10/25 11:22:05;;;;;;;1.30;0.90;;;15.00;86.10;;;;;;4996272;28;20469;-76
2023/10/25 11:24:35;;;;;;;1.50;0.87;;;15.10;85.40;;;;;;4996055;28;20934;-76
2023/10/25 11:27:02;;;;;;;3.40;1.10;;;15.10;85.10;;;;;;4996074;28;20457;-76
2023/10/25 11:29:29;;;;;;;1.30;0.83;;;15.30;85.40;;;;;;4996088;28;20480;-74
2023/10/25 11:32:00;;;;;;;2.33;1.30;;;15.20;84.40;;;;;;4995482;28;20954;-74
2023/10/25 11:34:31;;;;;;;1.60;0.90;;;15.30;84.20;;;;;;4996261;28;20504;-73
2023/10/25 11:36:59;;;;;;;1.60;1.20;;;15.40;84.00;;;;;;4996296;28;20453;-72
2023/10/25 11:39:28;;;;;;;1.50;0.90;;;15.40;84.90;;;;;;4996234;28;20453;-73
2023/10/25 11:41:55;;;;;;;2.23;1.33;;;15.50;83.30;;;;;;4996017;28;20469;-73
2023/10/25 11:44:22;;;;;;;1.20;0.70;;;15.50;83.50;;;;;;4995637;28;20481;-73
2023/10/25 11:46:51;;;;;;;1.20;0.70;;;15.70;82.20;;;;;;4995914;28;20495;-73
2023/10/25 11:49:18;;;;;;;1.50;0.70;;;15.80;82.30;;;;;;4995847;28;20540;-73
2023/10/25 11:51:47;;;;;;;1.23;0.80;;;15.60;81.90;;;;;;4995781;28;20480;-76
2023/10/25 11:54:14;;;;;;;1.40;0.80;;;15.80;80.80;;;;;;4995189;28;20449;-77
2023/10/25 11:56:42;;;;;;;1.47;0.90;;;16.20;80.20;;;;;;4995579;28;20629;-76
2023/10/25 11:59:08;;;;;;;1.20;0.73;;;16.30;80.20;;;;;;4995921;28;20445;-75
2023/10/25 12:01:35;;;;;;;1.30;0.70;;;16.10;79.90;;;;;;4995087;28;20484;-76
2023/10/25 12:04:02;;;;;;;1.50;0.73;;;16.10;79.80;;;;;;4995388;28;20492;-74
2023/10/25 12:06:29;;;;;;;1.10;0.60;;;16.10;80.70;;;;;;4994991;28;20856;-75
2023/10/25 12:08:55;;;;;;;1.10;0.60;;;15.90;80.70;;;;;;4995359;28;20456;-75
2023/10/25 12:11:22;;;;;;;1.30;0.70;;;15.80;81.20;;;;;;4995327;28;20462;-75
2023/10/25 12:13:50;;;;;;;1.17;0.67;;;15.80;80.00;;;;;;4995515;28;20449;-72
2023/10/25 12:16:17;;;;;;;1.20;0.67;;;15.70;80.40;;;;;;4995174;28;20947;-75
2023/10/25 12:18:43;;;;;;;1.57;0.80;;;15.70;80.80;;;;;;4995400;28;20451;-75
2023/10/25 12:21:10;;;;;;;1.40;0.70;;;15.70;81.70;;;;;;4995623;28;20472;-74
2023/10/25 12:23:37;;;;;;;1.10;0.60;;;15.60;80.30;;;;;;4995187;28;21036;-75
2023/10/25 12:26:04;;;;;;;1.10;0.60;;;15.70;80.20;;;;;;4995493;28;20444;-74
2023/10/25 12:28:30;;;;;;;1.30;0.70;;;15.70;80.40;;;;;;4996267;28;20453;-75
2023/10/25 12:30:58;;;;;;;1.20;0.73;;;15.80;80.90;;;;;;4994601;28;20995;-76
2023/10/25 12:33:25;;;;;;;2.33;0.80;;;15.80;80.60;;;;;;4995377;28;20441;-76
2023/10/25 12:35:53;;;;;;;1.40;0.70;;;15.90;80.80;;;;;;4994798;28;20822;-75
2023/10/25 12:38:19;;;;;;;1.30;0.80;;;15.90;79.60;;;;;;4994912;28;20453;-76
2023/10/25 12:40:47;;;;;;;1.40;0.67;;;15.80;80.00;;;;;;4994797;28;20465;-76
2023/10/25 12:43:13;;;;;;;1.30;0.70;;;15.70;80.80;;;;;;4994827;28;20481;-75
2023/10/25 12:45:40;;;;;;;1.30;0.70;;;15.70;80.70;;;;;;4994489;28;20456;-77
2023/10/25 12:48:08;;;;;;;1.47;0.70;;;15.70;80.90;;;;;;4994671;28;20456;-76
2023/10/25 12:50:36;;;;;;;3.00;0.80;;;15.70;81.40;;;;;;4994260;28;20949;-77
2023/10/25 12:53:03;;;;;;;1.20;0.77;;;15.70;80.50;;;;;;4994532;28;20445;-77
2023/10/25 12:55:30;;;;;;;1.10;0.60;;;15.70;80.30;;;;;;4994391;28;20537;-77
2023/10/25 12:57:56;;;;;;;1.30;0.70;;;15.80;80.50;;;;;;4994489;28;20445;-76
2023/10/25 13:00:23;;;;;;;1.87;0.70;;;15.90;80.40;;;;;;4994228;28;20444;-75
2023/10/25 13:02:50;;;;;;;1.10;0.60;;;16.30;80.60;;;;;;4994740;28;20497;-74
2023/10/25 13:05:18;;;;;;;1.30;0.70;;;16.40;78.20;;;;;;4994640;28;20449;-75
2023/10/25 13:07:44;;;;;;;1.30;0.60;;;16.50;78.90;;;;;;4994657;28;20440;-77
2023/10/25 13:10:11;;;;;;;1.57;0.70;;;16.50;77.40;;;;;;4993917;28;20966;-76
2023/10/25 13:12:38;;;;;;;2.03;0.70;;;16.60;77.60;;;;;;4994061;28;20465;-77
2023/10/25 13:15:05;;;;;;;1.17;0.60;;;16.50;77.30;;;;;;4994183;28;20456;-76
2023/10/25 13:17:32;;;;;;;1.30;0.80;;;16.70;78.50;;;;;;4994080;28;20923;-76
2023/10/25 13:20:02;;;;;;;2.20;1.07;;;17.00;77.60;;;;;;4994342;28;20462;-75
2023/10/25 13:22:30;;;;;;;1.20;0.70;;;17.00;76.40;;;;;;4994300;28;20845;-76
2023/10/25 13:24:57;;;;;;;1.53;0.70;;;16.80;76.50;;;;;;4994152;28;20485;-75
2023/10/25 13:27:24;;;;;;;1.20;0.70;;;16.60;76.50;;;;;;4994620;28;20448;-76
2023/10/25 13:29:52;;;;;;;1.83;0.80;;;16.40;75.90;;;;;;4994149;28;20873;-77
2023/10/25 13:32:19;;;;;;;1.20;0.70;;;16.40;76.70;;;;;;4994004;28;20485;-76
2023/10/25 13:34:46;;;;;;;1.17;0.70;;;16.30;76.90;;;;;;4994169;28;20441;-76
2023/10/25 13:37:12;;;;;;;1.27;0.70;;;16.20;77.30;;;;;;4994075;28;20449;-74
2023/10/25 13:39:40;;;;;;;1.20;0.70;;;16.10;77.30;;;;;;4994027;28;21009;-76
2023/10/25 13:42:07;;;;;;;1.20;0.63;;;16.00;77.20;;;;;;4993757;28;20457;-76
2023/10/25 13:44:34;;;;;;;1.30;0.60;;;15.90;78.60;;;;;;4994144;28;20479;-75
2023/10/25 13:47:01;;;;;;;1.20;0.60;;;15.90;78.00;;;;;;4994851;28;20449;-76
2023/10/25 13:49:28;;;;;;;1.30;0.70;;;15.90;78.40;;;;;;4994353;28;20943;-75
2023/10/25 13:51:55;;;;;;;1.30;0.80;;;15.90;78.10;;;;;;4993498;28;20456;-75
2023/10/25 13:54:22;;;;;;;1.37;0.60;;;16.10;79.40;;;;;;4994321;28;20444;-76
2023/10/25 13:56:50;;;;;;;1.90;0.70;;;16.40;77.00;;;;;;4996053;28;20453;-75
2023/10/25 13:59:16;;;;;;;1.30;0.80;;;16.40;77.60;;;;;;4998466;28;20444;-75
2023/10/25 14:01:43;;;;;;;1.40;0.70;;;16.30;77.10;;;;;;4997734;28;20480;-76
2023/10/25 14:04:10;;;;;;;1.40;0.70;;;16.30;77.90;;;;;;4997637;28;20539;-76
2023/10/25 14:06:37;;;;;;;1.40;0.70;;;16.50;77.00;;;;;;4997895;28;20514;-77
2023/10/25 14:09:05;;;;;;;1.40;0.80;;;17.00;75.40;;;;;;4997254;28;20938;-77
2023/10/25 14:11:32;;;;;;;1.60;0.97;;;17.40;75.40;;;;;;4997409;28;20465;-77
2023/10/25 14:14:00;;;;;;;1.30;0.70;;;17.40;74.80;;;;;;4997495;28;20445;-77
2023/10/25 14:16:26;;;;;;;1.50;0.90;;;17.00;75.70;;;;;;4997425;28;20444;-78
2023/10/25 14:18:53;;;;;;;1.63;0.80;;;16.90;76.60;;;;;;4997608;28;20824;-77
2023/10/25 14:21:23;;;;;;;1.90;0.80;;;16.80;76.60;;;;;;4997327;28;20465;-75
2023/10/25 14:23:51;;;;;;;1.20;0.70;;;16.60;77.40;;;;;;4997303;28;20469;-75
2023/10/25 14:26:18;;;;;;;1.20;0.70;;;16.30;78.60;;;;;;4997114;28;20451;-76
2023/10/25 14:28:44;;;;;;;1.40;0.70;;;16.10;79.00;;;;;;4997180;28;20448;-76
2023/10/25 14:31:15;;;;;;;2.80;0.70;;;16.00;79.40;;;;;;4996984;28;20468;-77
2023/10/25 14:33:42;;;;;;;1.20;0.70;;;15.80;80.20;;;;;;4996870;28;20425;-77
2023/10/25 14:36:13;;;;;;;1.50;0.90;;;15.60;81.40;;;;;;4997101;28;20451;-77
2023/10/25 14:38:41;;;;;;;1.50;0.80;;;15.50;81.50;;;;;;4997174;28;20841;-77
2023/10/25 14:41:08;;;;;;;1.40;0.80;;;15.40;82.10;;;;;;4997329;28;20515;-77
2023/10/25 14:43:35;;;;;;;1.20;0.70;;;15.30;82.90;;;;;;4997031;28;20518;-77
2023/10/25 14:46:02;;;;;;;1.20;0.70;;;15.20;83.50;;;;;;4996941;28;20480;-77
2023/10/25 14:48:30;;;;;;;2.23;1.10;;;15.10;83.70;;;;;;4997079;28;20445;-77
2023/10/25 14:50:56;;;;;;;1.20;0.73;;;14.90;84.10;;;;;;4996730;28;20461;-77
2023/10/25 14:53:23;;;;;;;1.40;0.90;;;14.80;84.20;;;;;;4996602;28;20452;-78
2023/10/25 14:55:50;;;;;;;1.40;0.90;;;14.70;84.40;;;;;;4996297;28;20441;-76
2023/10/25 14:58:16;;;;;;;1.60;0.80;;;14.80;84.90;;;;;;4996773;28;20461;-76
2023/10/25 15:00:43;;;;;;;1.70;1.00;;;14.70;84.30;;;;;;4996346;28;20476;-77
2023/10/25 15:03:10;;;;;;;2.50;0.80;;;14.70;84.60;;;;;;4996402;28;20433;-76
2023/10/25 15:05:41;;;;;;;1.50;0.70;;;14.70;84.60;;;;;;4996372;28;20536;-78
2023/10/25 15:08:07;;;;;;;1.20;0.70;;;14.70;85.00;;;;;;4996068;28;20433;-77
2023/10/25 15:10:34;;;;;;;1.30;0.70;;;14.80;84.00;;;;;;4996405;28;20449;-78
2023/10/25 15:13:01;;;;;;;1.57;0.73;;;14.70;84.20;;;;;;4996153;28;20830;-76
2023/10/25 15:15:28;;;;;;;2.93;0.90;;;14.70;84.70;;;;;;4996927;28;20442;-77
2023/10/25 15:17:55;;;;;;;1.30;0.63;;;14.60;84.20;;;;;;4997048;28;20445;-76
2023/10/25 15:20:22;;;;;;;1.37;0.80;;;14.50;85.00;;;;;;4996213;28;20444;-77
2023/10/25 15:22:50;;;;;;;1.57;0.87;;;14.50;85.20;;;;;;4996464;28;20504;-76
2023/10/25 15:25:16;;;;;;;1.53;0.70;;;14.40;85.80;;;;;;4996765;28;20488;-76
2023/10/25 15:27:43;;;;;;;2.17;1.13;;;14.40;87.30;;;;;;4996140;28;20445;-76
2023/10/25 15:30:11;;;;;;;1.87;0.90;;;14.30;88.00;;;;;;4996059;28;20452;-77
2023/10/25 15:32:37;;;;;;;1.53;0.90;;;14.20;89.20;;;;;;4995991;28;20469;-77
2023/10/25 15:35:04;;;;;;;1.30;0.80;;;14.00;89.50;;;;;;4995851;28;20819;-77
2023/10/25 15:37:30;;;;;;;1.30;0.80;;;14.00;90.60;;;;;;4995565;28;20938;-76
2023/10/25 15:40:00;;;;;;;1.30;0.80;;;13.90;91.30;;;;;;4996331;28;20441;-76
2023/10/25 15:42:27;;;;;;;1.20;0.70;;;13.90;91.40;;;;;;4995682;28;20499;-78
2023/10/25 15:44:54;;;;;;;1.70;0.90;;;14.00;91.10;;;;;;4995647;28;20507;-77
2023/10/25 15:47:21;;;;;;;1.40;0.90;;;13.90;91.10;;;;;;4995658;28;20445;-76
2023/10/25 15:49:50;;;;;;;1.27;0.83;;;13.90;91.80;;;;;;4995660;28;20481;-77
2023/10/25 15:52:16;;;;;;;1.17;0.67;;;13.80;91.90;;;;;;4995470;28;20465;-76
2023/10/25 15:54:43;;;;;;;1.57;0.80;;;13.70;92.60;;;;;;4995441;28;20982;-76
2023/10/25 15:57:11;;;;;;;1.40;0.80;;;13.70;93.30;;;;;;4995298;28;20942;-76
2023/10/25 15:59:38;;;;;;;1.40;0.87;;;13.70;92.90;;;;;;4995386;28;20445;-77
2023/10/25 16:02:04;;;;;;;1.37;0.80;;;13.80;92.80;;;;;;4995019;28;20484;-76
2023/10/25 16:04:31;;;;;;;1.70;1.23;;;13.80;92.30;;;;;;4995384;28;20491;-77
2023/10/25 16:06:58;;;;;;;1.83;0.93;;;13.80;92.40;;;;;;4995229;28;20451;-77
2023/10/25 16:09:24;;;;;;;1.40;0.90;;;13.70;92.50;;;;;;4995373;28;20441;-76
2023/10/25 16:11:51;;;;;;;1.70;1.20;;;13.70;92.80;;;;;;4995521;28;20468;-75
2023/10/25 16:14:19;;;;;;;3.50;2.17;;;13.70;92.60;;;;;;4996019;28;20452;-76
2023/10/25 16:16:45;;;;;;;3.23;1.70;;;13.70;92.80;;;;;;4995101;28;20862;-77
2023/10/25 16:19:12;;;;;;;1.50;1.00;;;13.60;92.90;;;;;;4994237;28;20824;-76
2023/10/25 16:21:41;;;;;;;1.83;1.33;;;13.50;93.30;;;;;;4995088;28;20469;-77
2023/10/25 16:24:08;;;;;;;1.50;1.03;;;13.40;93.20;;;;;;4995668;28;20531;-77
2023/10/25 16:26:35;;;;;;;1.63;1.00;;;13.40;92.20;;;;;;4995260;28;20445;-76
2023/10/25 16:29:01;;;;;;;1.50;1.17;;;13.30;92.40;;;;;;4994958;28;20441;-76
2023/10/25 16:31:30;;;;;;;2.27;1.00;;;13.40;91.80;;;;;;4994835;28;20477;-75
2023/10/25 16:33:56;;;;;;;1.33;0.80;;;13.40;92.10;;;;;;4994555;28;20454;-76
2023/10/25 16:36:23;;;;;;;1.20;0.70;;;13.30;92.10;;;;;;4995593;28;20449;-76
2023/10/25 16:38:49;;;;;;;1.20;0.70;;;13.40;91.90;;;;;;4994775;28;20445;-74
2023/10/25 16:41:16;;;;;;;1.60;1.13;;;13.40;92.00;;;;;;4994685;28;20468;-76
2023/10/25 16:43:43;;;;;;;1.30;0.80;;;13.40;92.40;;;;;;4994556;28;20452;-75
2023/10/25 16:46:11;;;;;;;1.67;1.10;;;13.60;92.40;;;;;;4994576;28;20450;-76
2023/10/25 16:48:41;;;;;;;1.20;0.70;;;13.70;91.60;;;;;;4994747;28;20479;-76
2023/10/25 16:51:09;;;;;;;2.37;1.13;;;13.70;91.40;;;;;;4994769;28;20461;-76